RJNS(METAR)
04/14 21:52
RJNS 141252Z VRB04KT 9999 FEW020 BKN025 BKN/// 15/07 Q1007 RMK
1CU020 5CU025 A2975 P/RR=
戻る
トップページへ戻る
IMOC Co,.Ltd.